sensor_id;sensor_type;location;lat;lon;timestamp;P1;durP1;ratioP1;P2;durP2;ratioP2
10827;SDS011;5467;59.334;13.512;2023-04-03T00:01:52;0.70;;;0.70;;
10827;SDS011;5467;59.334;13.512;2023-04-03T00:04:19;0.80;;;0.80;;
10827;SDS011;5467;59.334;13.512;2023-04-03T00:06:47;0.80;;;0.80;;
10827;SDS011;5467;59.334;13.512;2023-04-03T00:09:15;0.70;;;0.70;;
10827;SDS011;5467;59.334;13.512;2023-04-03T00:11:43;0.70;;;0.70;;
10827;SDS011;5467;59.334;13.512;2023-04-03T00:14:10;0.70;;;0.70;;
10827;SDS011;5467;59.334;13.512;2023-04-03T00:16:37;0.70;;;0.70;;
10827;SDS011;5467;59.334;13.512;2023-04-03T00:19:04;0.70;;;0.70;;
10827;SDS011;5467;59.334;13.512;2023-04-03T00:21:32;0.80;;;0.80;;
10827;SDS011;5467;59.334;13.512;2023-04-03T00:23:59;0.73;;;0.73;;
10827;SDS011;5467;59.334;13.512;2023-04-03T00:26:28;0.80;;;0.80;;
10827;SDS011;5467;59.334;13.512;2023-04-03T00:28:55;0.70;;;0.70;;
10827;SDS011;5467;59.334;13.512;2023-04-03T00:31:22;0.80;;;0.80;;
10827;SDS011;5467;59.334;13.512;2023-04-03T00:33:49;0.80;;;0.80;;
10827;SDS011;5467;59.334;13.512;2023-04-03T00:36:16;0.80;;;0.80;;
10827;SDS011;5467;59.334;13.512;2023-04-03T00:38:43;0.80;;;0.80;;
10827;SDS011;5467;59.334;13.512;2023-04-03T00:41:11;0.80;;;0.80;;
10827;SDS011;5467;59.334;13.512;2023-04-03T00:43:39;0.80;;;0.80;;
10827;SDS011;5467;59.334;13.512;2023-04-03T00:46:06;0.80;;;0.80;;
10827;SDS011;5467;59.334;13.512;2023-04-03T00:48:34;0.80;;;0.80;;
10827;SDS011;5467;59.334;13.512;2023-04-03T00:51:05;0.80;;;0.80;;
10827;SDS011;5467;59.334;13.512;2023-04-03T00:53:35;0.80;;;0.80;;
10827;SDS011;5467;59.334;13.512;2023-04-03T00:56:06;0.80;;;0.80;;
10827;SDS011;5467;59.334;13.512;2023-04-03T00:58:37;0.80;;;0.80;;
10827;SDS011;5467;59.334;13.512;2023-04-03T01:01:11;0.70;;;0.70;;
10827;SDS011;5467;59.334;13.512;2023-04-03T01:03:42;0.80;;;0.80;;
10827;SDS011;5467;59.334;13.512;2023-04-03T01:06:09;0.90;;;0.90;;
10827;SDS011;5467;59.334;13.512;2023-04-03T01:08:47;0.80;;;0.80;;
10827;SDS011;5467;59.334;13.512;2023-04-03T01:11:15;0.80;;;0.80;;
10827;SDS011;5467;59.334;13.512;2023-04-03T01:13:44;0.80;;;0.80;;
10827;SDS011;5467;59.334;13.512;2023-04-03T01:16:11;0.90;;;0.90;;
10827;SDS011;5467;59.334;13.512;2023-04-03T01:18:38;0.80;;;0.80;;
10827;SDS011;5467;59.334;13.512;2023-04-03T01:24:18;0.80;;;0.80;;
10827;SDS011;5467;59.334;13.512;2023-04-03T01:26:53;0.80;;;0.80;;
10827;SDS011;5467;59.334;13.512;2023-04-03T01:29:22;0.80;;;0.80;;
10827;SDS011;5467;59.334;13.512;2023-04-03T01:31:52;0.90;;;0.90;;
10827;SDS011;5467;59.334;13.512;2023-04-03T01:34:19;0.80;;;0.80;;
10827;SDS011;5467;59.334;13.512;2023-04-03T01:36:47;0.70;;;0.70;;
10827;SDS011;5467;59.334;13.512;2023-04-03T01:39:14;0.80;;;0.80;;
10827;SDS011;5467;59.334;13.512;2023-04-03T01:41:41;0.80;;;0.80;;
10827;SDS011;5467;59.334;13.512;2023-04-03T01:44:09;0.80;;;0.80;;
10827;SDS011;5467;59.334;13.512;2023-04-03T01:46:36;0.93;;;0.93;;
10827;SDS011;5467;59.334;13.512;2023-04-03T01:49:05;0.83;;;0.83;;
10827;SDS011;5467;59.334;13.512;2023-04-03T01:51:32;0.73;;;0.73;;
10827;SDS011;5467;59.334;13.512;2023-04-03T01:53:59;0.70;;;0.70;;
10827;SDS011;5467;59.334;13.512;2023-04-03T01:56:26;0.70;;;0.70;;
10827;SDS011;5467;59.334;13.512;2023-04-03T01:58:53;0.80;;;0.80;;
10827;SDS011;5467;59.334;13.512;2023-04-03T02:01:20;0.80;;;0.80;;
10827;SDS011;5467;59.334;13.512;2023-04-03T02:03:48;1.10;;;0.83;;
10827;SDS011;5467;59.334;13.512;2023-04-03T02:06:16;0.80;;;0.80;;
10827;SDS011;5467;59.334;13.512;2023-04-03T02:08:43;0.87;;;0.87;;
10827;SDS011;5467;59.334;13.512;2023-04-03T02:11:11;0.80;;;0.80;;
10827;SDS011;5467;59.334;13.512;2023-04-03T02:13:38;0.80;;;0.80;;
10827;SDS011;5467;59.334;13.512;2023-04-03T02:16:08;0.73;;;0.73;;
10827;SDS011;5467;59.334;13.512;2023-04-03T02:18:36;0.70;;;0.70;;
10827;SDS011;5467;59.334;13.512;2023-04-03T02:21:04;0.90;;;0.90;;
10827;SDS011;5467;59.334;13.512;2023-04-03T02:23:33;0.87;;;0.87;;
10827;SDS011;5467;59.334;13.512;2023-04-03T02:26:05;0.80;;;0.80;;
10827;SDS011;5467;59.334;13.512;2023-04-03T02:28:34;0.70;;;0.70;;
10827;SDS011;5467;59.334;13.512;2023-04-03T02:31:01;0.80;;;0.80;;
10827;SDS011;5467;59.334;13.512;2023-04-03T02:33:28;0.80;;;0.80;;
10827;SDS011;5467;59.334;13.512;2023-04-03T02:35:56;0.80;;;0.80;;
10827;SDS011;5467;59.334;13.512;2023-04-03T02:38:23;0.80;;;0.80;;
10827;SDS011;5467;59.334;13.512;2023-04-03T02:40:53;0.80;;;0.80;;
10827;SDS011;5467;59.334;13.512;2023-04-03T02:43:25;0.80;;;0.80;;
10827;SDS011;5467;59.334;13.512;2023-04-03T02:45:52;0.77;;;0.77;;
10827;SDS011;5467;59.334;13.512;2023-04-03T02:48:19;0.80;;;0.80;;
10827;SDS011;5467;59.334;13.512;2023-04-03T02:50:46;0.80;;;0.80;;
10827;SDS011;5467;59.334;13.512;2023-04-03T02:53:14;0.80;;;0.80;;
10827;SDS011;5467;59.334;13.512;2023-04-03T02:55:41;0.80;;;0.80;;
10827;SDS011;5467;59.334;13.512;2023-04-03T02:58:09;0.80;;;0.80;;
10827;SDS011;5467;59.334;13.512;2023-04-03T03:00:37;0.80;;;0.80;;
10827;SDS011;5467;59.334;13.512;2023-04-03T03:03:04;0.80;;;0.80;;
10827;SDS011;5467;59.334;13.512;2023-04-03T03:05:32;0.90;;;0.90;;
10827;SDS011;5467;59.334;13.512;2023-04-03T03:08:01;0.90;;;0.90;;
10827;SDS011;5467;59.334;13.512;2023-04-03T03:10:28;0.90;;;0.90;;
10827;SDS011;5467;59.334;13.512;2023-04-03T03:12:55;0.80;;;0.80;;
10827;SDS011;5467;59.334;13.512;2023-04-03T03:15:24;0.87;;;0.87;;
10827;SDS011;5467;59.334;13.512;2023-04-03T03:17:51;0.80;;;0.80;;
10827;SDS011;5467;59.334;13.512;2023-04-03T03:20:18;0.80;;;0.80;;
10827;SDS011;5467;59.334;13.512;2023-04-03T03:22:45;0.90;;;0.90;;
10827;SDS011;5467;59.334;13.512;2023-04-03T03:25:13;0.80;;;0.80;;
10827;SDS011;5467;59.334;13.512;2023-04-03T03:27:41;0.80;;;0.80;;
10827;SDS011;5467;59.334;13.512;2023-04-03T03:30:08;0.80;;;0.80;;
10827;SDS011;5467;59.334;13.512;2023-04-03T03:32:37;0.80;;;0.80;;
10827;SDS011;5467;59.334;13.512;2023-04-03T03:35:05;0.80;;;0.80;;
10827;SDS011;5467;59.334;13.512;2023-04-03T03:37:32;0.80;;;0.80;;
10827;SDS011;5467;59.334;13.512;2023-04-03T03:40:00;1.27;;;1.20;;
10827;SDS011;5467;59.334;13.512;2023-04-03T03:42:27;0.83;;;0.83;;
10827;SDS011;5467;59.334;13.512;2023-04-03T03:44:55;0.80;;;0.80;;
10827;SDS011;5467;59.334;13.512;2023-04-03T03:47:22;0.80;;;0.80;;
10827;SDS011;5467;59.334;13.512;2023-04-03T03:49:51;0.80;;;0.80;;
10827;SDS011;5467;59.334;13.512;2023-04-03T03:52:18;0.80;;;0.80;;
10827;SDS011;5467;59.334;13.512;2023-04-03T03:54:46;0.80;;;0.80;;
10827;SDS011;5467;59.334;13.512;2023-04-03T03:57:13;0.90;;;0.90;;
10827;SDS011;5467;59.334;13.512;2023-04-03T03:59:40;0.73;;;0.73;;
10827;SDS011;5467;59.334;13.512;2023-04-03T04:02:07;1.00;;;1.00;;
10827;SDS011;5467;59.334;13.512;2023-04-03T04:04:35;0.80;;;0.80;;
10827;SDS011;5467;59.334;13.512;2023-04-03T04:07:03;0.80;;;0.80;;
10827;SDS011;5467;59.334;13.512;2023-04-03T04:09:30;0.90;;;0.90;;
10827;SDS011;5467;59.334;13.512;2023-04-03T04:11:58;1.23;;;1.13;;
10827;SDS011;5467;59.334;13.512;2023-04-03T04:14:25;0.90;;;0.90;;
10827;SDS011;5467;59.334;13.512;2023-04-03T04:16:52;0.80;;;0.80;;
10827;SDS011;5467;59.334;13.512;2023-04-03T04:19:19;0.80;;;0.80;;
10827;SDS011;5467;59.334;13.512;2023-04-03T04:21:46;0.97;;;0.97;;
10827;SDS011;5467;59.334;13.512;2023-04-03T04:24:14;0.80;;;0.80;;
10827;SDS011;5467;59.334;13.512;2023-04-03T04:26:41;1.00;;;1.00;;
10827;SDS011;5467;59.334;13.512;2023-04-03T04:29:08;0.90;;;0.90;;
10827;SDS011;5467;59.334;13.512;2023-04-03T04:31:36;0.90;;;0.90;;
10827;SDS011;5467;59.334;13.512;2023-04-03T04:34:03;1.20;;;1.20;;
10827;SDS011;5467;59.334;13.512;2023-04-03T04:36:30;1.00;;;1.00;;
10827;SDS011;5467;59.334;13.512;2023-04-03T04:38:57;1.00;;;1.00;;
10827;SDS011;5467;59.334;13.512;2023-04-03T04:41:26;1.00;;;1.00;;
10827;SDS011;5467;59.334;13.512;2023-04-03T04:43:53;0.90;;;0.90;;
10827;SDS011;5467;59.334;13.512;2023-04-03T04:46:20;1.00;;;1.00;;
10827;SDS011;5467;59.334;13.512;2023-04-03T04:48:47;0.97;;;0.97;;
10827;SDS011;5467;59.334;13.512;2023-04-03T04:51:15;1.17;;;1.00;;
10827;SDS011;5467;59.334;13.512;2023-04-03T04:53:42;0.90;;;0.90;;
10827;SDS011;5467;59.334;13.512;2023-04-03T04:56:10;1.00;;;1.00;;
10827;SDS011;5467;59.334;13.512;2023-04-03T04:58:38;2.00;;;1.57;;
10827;SDS011;5467;59.334;13.512;2023-04-03T05:01:06;1.20;;;1.10;;
10827;SDS011;5467;59.334;13.512;2023-04-03T05:03:34;1.17;;;1.17;;
10827;SDS011;5467;59.334;13.512;2023-04-03T05:06:02;1.20;;;1.10;;
10827;SDS011;5467;59.334;13.512;2023-04-03T05:08:30;1.00;;;1.00;;
10827;SDS011;5467;59.334;13.512;2023-04-03T05:10:57;1.33;;;1.23;;
10827;SDS011;5467;59.334;13.512;2023-04-03T05:13:24;1.20;;;1.10;;
10827;SDS011;5467;59.334;13.512;2023-04-03T05:15:53;1.10;;;1.10;;
10827;SDS011;5467;59.334;13.512;2023-04-03T05:18:20;1.00;;;1.00;;
10827;SDS011;5467;59.334;13.512;2023-04-03T05:20:47;1.20;;;1.10;;
10827;SDS011;5467;59.334;13.512;2023-04-03T05:23:15;1.33;;;1.23;;
10827;SDS011;5467;59.334;13.512;2023-04-03T05:25:42;1.20;;;1.10;;
10827;SDS011;5467;59.334;13.512;2023-04-03T05:28:10;0.90;;;0.90;;
10827;SDS011;5467;59.334;13.512;2023-04-03T05:30:37;0.90;;;0.90;;
10827;SDS011;5467;59.334;13.512;2023-04-03T05:33:05;1.27;;;1.27;;
10827;SDS011;5467;59.334;13.512;2023-04-03T05:35:32;0.90;;;0.90;;
10827;SDS011;5467;59.334;13.512;2023-04-03T05:38:04;1.10;;;1.10;;
10827;SDS011;5467;59.334;13.512;2023-04-03T05:40:31;1.00;;;1.00;;
10827;SDS011;5467;59.334;13.512;2023-04-03T05:42:59;2.00;;;1.30;;
10827;SDS011;5467;59.334;13.512;2023-04-03T05:45:26;1.30;;;1.20;;
10827;SDS011;5467;59.334;13.512;2023-04-03T05:47:53;0.90;;;0.90;;
10827;SDS011;5467;59.334;13.512;2023-04-03T05:50:21;0.90;;;0.90;;
10827;SDS011;5467;59.334;13.512;2023-04-03T05:52:49;1.93;;;1.83;;
10827;SDS011;5467;59.334;13.512;2023-04-03T05:55:17;1.40;;;1.27;;
10827;SDS011;5467;59.334;13.512;2023-04-03T05:57:45;1.63;;;1.53;;
10827;SDS011;5467;59.334;13.512;2023-04-03T06:00:13;1.20;;;1.20;;
10827;SDS011;5467;59.334;13.512;2023-04-03T06:02:41;1.43;;;1.33;;
10827;SDS011;5467;59.334;13.512;2023-04-03T06:05:09;1.40;;;1.30;;
10827;SDS011;5467;59.334;13.512;2023-04-03T06:07:40;0.90;;;0.90;;
10827;SDS011;5467;59.334;13.512;2023-04-03T06:10:07;1.00;;;1.00;;
10827;SDS011;5467;59.334;13.512;2023-04-03T06:12:35;1.33;;;1.23;;
10827;SDS011;5467;59.334;13.512;2023-04-03T06:15:02;1.23;;;1.23;;
10827;SDS011;5467;59.334;13.512;2023-04-03T06:17:29;0.90;;;0.90;;
10827;SDS011;5467;59.334;13.512;2023-04-03T06:19:57;1.17;;;1.10;;
10827;SDS011;5467;59.334;13.512;2023-04-03T06:22:24;1.10;;;1.00;;
10827;SDS011;5467;59.334;13.512;2023-04-03T06:24:53;0.90;;;0.90;;
10827;SDS011;5467;59.334;13.512;2023-04-03T06:27:21;0.80;;;0.80;;
10827;SDS011;5467;59.334;13.512;2023-04-03T06:29:48;0.80;;;0.80;;
10827;SDS011;5467;59.334;13.512;2023-04-03T06:32:15;0.87;;;0.87;;
10827;SDS011;5467;59.334;13.512;2023-04-03T06:34:42;0.90;;;0.90;;
10827;SDS011;5467;59.334;13.512;2023-04-03T06:37:10;0.80;;;0.80;;
10827;SDS011;5467;59.334;13.512;2023-04-03T06:39:41;0.90;;;0.90;;
10827;SDS011;5467;59.334;13.512;2023-04-03T06:42:09;0.93;;;0.93;;
10827;SDS011;5467;59.334;13.512;2023-04-03T06:44:37;0.93;;;0.93;;
10827;SDS011;5467;59.334;13.512;2023-04-03T06:47:04;0.97;;;0.97;;
10827;SDS011;5467;59.334;13.512;2023-04-03T06:49:31;0.87;;;0.87;;
10827;SDS011;5467;59.334;13.512;2023-04-03T06:51:58;1.00;;;1.00;;
10827;SDS011;5467;59.334;13.512;2023-04-03T06:54:25;0.90;;;0.90;;
10827;SDS011;5467;59.334;13.512;2023-04-03T06:56:52;0.77;;;0.77;;
10827;SDS011;5467;59.334;13.512;2023-04-03T06:59:21;0.90;;;0.90;;
10827;SDS011;5467;59.334;13.512;2023-04-03T07:01:48;1.20;;;1.10;;
10827;SDS011;5467;59.334;13.512;2023-04-03T07:04:16;0.80;;;0.80;;
10827;SDS011;5467;59.334;13.512;2023-04-03T07:06:45;0.80;;;0.80;;
10827;SDS011;5467;59.334;13.512;2023-04-03T07:09:12;0.80;;;0.80;;
10827;SDS011;5467;59.334;13.512;2023-04-03T07:11:39;0.80;;;0.80;;
10827;SDS011;5467;59.334;13.512;2023-04-03T07:14:07;0.80;;;0.80;;
10827;SDS011;5467;59.334;13.512;2023-04-03T07:16:35;1.10;;;1.00;;
10827;SDS011;5467;59.334;13.512;2023-04-03T07:19:03;0.80;;;0.80;;
10827;SDS011;5467;59.334;13.512;2023-04-03T07:21:30;0.80;;;0.80;;
10827;SDS011;5467;59.334;13.512;2023-04-03T07:23:57;0.80;;;0.80;;
10827;SDS011;5467;59.334;13.512;2023-04-03T07:26:24;0.80;;;0.80;;
10827;SDS011;5467;59.334;13.512;2023-04-03T07:28:51;0.80;;;0.80;;
10827;SDS011;5467;59.334;13.512;2023-04-03T07:31:18;0.80;;;0.80;;
10827;SDS011;5467;59.334;13.512;2023-04-03T07:33:47;0.80;;;0.80;;
10827;SDS011;5467;59.334;13.512;2023-04-03T07:36:16;0.80;;;0.80;;
10827;SDS011;5467;59.334;13.512;2023-04-03T07:38:44;0.80;;;0.80;;
10827;SDS011;5467;59.334;13.512;2023-04-03T07:41:12;0.80;;;0.80;;
10827;SDS011;5467;59.334;13.512;2023-04-03T07:43:42;0.80;;;0.80;;
10827;SDS011;5467;59.334;13.512;2023-04-03T07:46:10;0.80;;;0.80;;
10827;SDS011;5467;59.334;13.512;2023-04-03T07:48:37;0.90;;;0.90;;
10827;SDS011;5467;59.334;13.512;2023-04-03T07:51:06;0.80;;;0.80;;
10827;SDS011;5467;59.334;13.512;2023-04-03T07:53:33;0.80;;;0.80;;
10827;SDS011;5467;59.334;13.512;2023-04-03T07:56:01;0.80;;;0.80;;
10827;SDS011;5467;59.334;13.512;2023-04-03T07:58:28;0.83;;;0.83;;
10827;SDS011;5467;59.334;13.512;2023-04-03T08:00:55;1.30;;;1.23;;
10827;SDS011;5467;59.334;13.512;2023-04-03T08:03:22;0.80;;;0.80;;
10827;SDS011;5467;59.334;13.512;2023-04-03T08:05:49;0.80;;;0.80;;
10827;SDS011;5467;59.334;13.512;2023-04-03T08:08:20;0.80;;;0.80;;
10827;SDS011;5467;59.334;13.512;2023-04-03T08:10:49;0.90;;;0.90;;
10827;SDS011;5467;59.334;13.512;2023-04-03T08:13:17;0.90;;;0.90;;
10827;SDS011;5467;59.334;13.512;2023-04-03T08:15:45;0.90;;;0.90;;
10827;SDS011;5467;59.334;13.512;2023-04-03T08:18:12;0.80;;;0.80;;
10827;SDS011;5467;59.334;13.512;2023-04-03T08:20:39;0.70;;;0.70;;
10827;SDS011;5467;59.334;13.512;2023-04-03T08:23:07;0.80;;;0.80;;
10827;SDS011;5467;59.334;13.512;2023-04-03T08:25:37;0.83;;;0.83;;
10827;SDS011;5467;59.334;13.512;2023-04-03T08:28:04;0.80;;;0.80;;
10827;SDS011;5467;59.334;13.512;2023-04-03T08:30:32;0.77;;;0.77;;
10827;SDS011;5467;59.334;13.512;2023-04-03T08:33:00;0.80;;;0.80;;
10827;SDS011;5467;59.334;13.512;2023-04-03T08:35:27;0.80;;;0.80;;
10827;SDS011;5467;59.334;13.512;2023-04-03T08:37:55;0.70;;;0.70;;
10827;SDS011;5467;59.334;13.512;2023-04-03T08:40:22;0.93;;;0.93;;
10827;SDS011;5467;59.334;13.512;2023-04-03T08:42:53;0.80;;;0.80;;
10827;SDS011;5467;59.334;13.512;2023-04-03T09:01:36;0.80;;;0.80;;
10827;SDS011;5467;59.334;13.512;2023-04-03T09:04:09;0.80;;;0.80;;
10827;SDS011;5467;59.334;13.512;2023-04-03T09:20:49;0.60;;;0.60;;
10827;SDS011;5467;59.334;13.512;2023-04-03T09:23:24;0.60;;;0.60;;
10827;SDS011;5467;59.334;13.512;2023-04-03T09:25:57;0.60;;;0.60;;
10827;SDS011;5467;59.334;13.512;2023-04-03T09:28:29;0.80;;;0.80;;
10827;SDS011;5467;59.334;13.512;2023-04-03T09:30:59;0.60;;;0.60;;
10827;SDS011;5467;59.334;13.512;2023-04-03T09:33:26;0.70;;;0.70;;
10827;SDS011;5467;59.334;13.512;2023-04-03T09:35:57;0.60;;;0.60;;
10827;SDS011;5467;59.334;13.512;2023-04-03T09:38:24;0.70;;;0.70;;
10827;SDS011;5467;59.334;13.512;2023-04-03T09:41:02;0.60;;;0.60;;
10827;SDS011;5467;59.334;13.512;2023-04-03T09:43:32;0.70;;;0.70;;
10827;SDS011;5467;59.334;13.512;2023-04-03T09:46:15;0.70;;;0.70;;
10827;SDS011;5467;59.334;13.512;2023-04-03T09:48:49;0.67;;;0.67;;
10827;SDS011;5467;59.334;13.512;2023-04-03T09:51:19;0.70;;;0.70;;
10827;SDS011;5467;59.334;13.512;2023-04-03T09:53:53;0.60;;;0.60;;
10827;SDS011;5467;59.334;13.512;2023-04-03T09:56:22;0.70;;;0.70;;
10827;SDS011;5467;59.334;13.512;2023-04-03T09:58:51;0.63;;;0.63;;
10827;SDS011;5467;59.334;13.512;2023-04-03T10:01:33;0.60;;;0.60;;
10827;SDS011;5467;59.334;13.512;2023-04-03T10:04:03;0.63;;;0.63;;
10827;SDS011;5467;59.334;13.512;2023-04-03T10:06:34;0.63;;;0.63;;
10827;SDS011;5467;59.334;13.512;2023-04-03T10:09:06;0.60;;;0.60;;
10827;SDS011;5467;59.334;13.512;2023-04-03T10:11:58;0.60;;;0.60;;
10827;SDS011;5467;59.334;13.512;2023-04-03T10:14:31;0.70;;;0.70;;
10827;SDS011;5467;59.334;13.512;2023-04-03T10:17:00;0.60;;;0.60;;
10827;SDS011;5467;59.334;13.512;2023-04-03T10:19:33;1.80;;;1.00;;
10827;SDS011;5467;59.334;13.512;2023-04-03T10:22:06;0.60;;;0.60;;
10827;SDS011;5467;59.334;13.512;2023-04-03T10:24:47;0.60;;;0.60;;
10827;SDS011;5467;59.334;13.512;2023-04-03T10:27:21;0.70;;;0.70;;
10827;SDS011;5467;59.334;13.512;2023-04-03T10:29:59;0.70;;;0.70;;
10827;SDS011;5467;59.334;13.512;2023-04-03T10:32:40;0.60;;;0.60;;
10827;SDS011;5467;59.334;13.512;2023-04-03T10:35:16;0.60;;;0.60;;
10827;SDS011;5467;59.334;13.512;2023-04-03T10:37:51;0.70;;;0.70;;
10827;SDS011;5467;59.334;13.512;2023-04-03T10:40:29;0.70;;;0.70;;
10827;SDS011;5467;59.334;13.512;2023-04-03T10:43:03;0.60;;;0.60;;
10827;SDS011;5467;59.334;13.512;2023-04-03T10:45:42;0.70;;;0.70;;
10827;SDS011;5467;59.334;13.512;2023-04-03T10:48:18;0.80;;;0.80;;
10827;SDS011;5467;59.334;13.512;2023-04-03T10:50:58;0.60;;;0.60;;
10827;SDS011;5467;59.334;13.512;2023-04-03T10:53:34;0.60;;;0.60;;
10827;SDS011;5467;59.334;13.512;2023-04-03T10:56:07;0.60;;;0.60;;
10827;SDS011;5467;59.334;13.512;2023-04-03T10:58:40;0.60;;;0.60;;
10827;SDS011;5467;59.334;13.512;2023-04-03T11:01:11;0.60;;;0.60;;
10827;SDS011;5467;59.334;13.512;2023-04-03T11:03:41;0.60;;;0.60;;
10827;SDS011;5467;59.334;13.512;2023-04-03T11:06:11;0.60;;;0.60;;
10827;SDS011;5467;59.334;13.512;2023-04-03T11:08:44;0.60;;;0.60;;
10827;SDS011;5467;59.334;13.512;2023-04-03T11:11:16;0.67;;;0.67;;
10827;SDS011;5467;59.334;13.512;2023-04-03T11:13:48;0.60;;;0.60;;
10827;SDS011;5467;59.334;13.512;2023-04-03T11:16:19;0.70;;;0.70;;
10827;SDS011;5467;59.334;13.512;2023-04-03T11:18:51;0.60;;;0.60;;
10827;SDS011;5467;59.334;13.512;2023-04-03T11:21:21;0.60;;;0.60;;
10827;SDS011;5467;59.334;13.512;2023-04-03T11:23:56;0.60;;;0.60;;
10827;SDS011;5467;59.334;13.512;2023-04-03T11:26:25;0.60;;;0.60;;
10827;SDS011;5467;59.334;13.512;2023-04-03T11:28:56;0.60;;;0.60;;
10827;SDS011;5467;59.334;13.512;2023-04-03T11:31:29;0.63;;;0.63;;
10827;SDS011;5467;59.334;13.512;2023-04-03T11:34:08;0.60;;;0.60;;
10827;SDS011;5467;59.334;13.512;2023-04-03T11:36:47;0.60;;;0.60;;
10827;SDS011;5467;59.334;13.512;2023-04-03T11:39:20;0.70;;;0.70;;
10827;SDS011;5467;59.334;13.512;2023-04-03T11:41:50;0.60;;;0.60;;
10827;SDS011;5467;59.334;13.512;2023-04-03T11:44:27;0.60;;;0.60;;
10827;SDS011;5467;59.334;13.512;2023-04-03T11:46:59;0.70;;;0.70;;
10827;SDS011;5467;59.334;13.512;2023-04-03T11:55:43;0.70;;;0.70;;
10827;SDS011;5467;59.334;13.512;2023-04-03T11:58:13;0.70;;;0.70;;
10827;SDS011;5467;59.334;13.512;2023-04-03T12:00:48;0.60;;;0.60;;
10827;SDS011;5467;59.334;13.512;2023-04-03T12:03:30;0.60;;;0.60;;
10827;SDS011;5467;59.334;13.512;2023-04-03T12:09:25;0.70;;;0.70;;
10827;SDS011;5467;59.334;13.512;2023-04-03T12:11:56;1.30;;;0.80;;
10827;SDS011;5467;59.334;13.512;2023-04-03T12:14:26;0.63;;;0.63;;
10827;SDS011;5467;59.334;13.512;2023-04-03T12:16:55;0.63;;;0.63;;
10827;SDS011;5467;59.334;13.512;2023-04-03T12:19:30;0.60;;;0.60;;
10827;SDS011;5467;59.334;13.512;2023-04-03T12:22:15;0.73;;;0.70;;
10827;SDS011;5467;59.334;13.512;2023-04-03T12:24:46;0.60;;;0.60;;
10827;SDS011;5467;59.334;13.512;2023-04-03T12:27:34;0.60;;;0.60;;
10827;SDS011;5467;59.334;13.512;2023-04-03T12:30:12;0.60;;;0.60;;
10827;SDS011;5467;59.334;13.512;2023-04-03T12:35:49;0.70;;;0.70;;
10827;SDS011;5467;59.334;13.512;2023-04-03T12:38:37;0.60;;;0.60;;
10827;SDS011;5467;59.334;13.512;2023-04-03T12:41:23;0.60;;;0.60;;
10827;SDS011;5467;59.334;13.512;2023-04-03T12:44:06;0.60;;;0.60;;
10827;SDS011;5467;59.334;13.512;2023-04-03T12:46:52;0.60;;;0.60;;
10827;SDS011;5467;59.334;13.512;2023-04-03T12:52:04;0.60;;;0.60;;
10827;SDS011;5467;59.334;13.512;2023-04-03T12:54:43;0.60;;;0.60;;
10827;SDS011;5467;59.334;13.512;2023-04-03T12:57:16;0.60;;;0.60;;
10827;SDS011;5467;59.334;13.512;2023-04-03T12:59:46;0.70;;;0.70;;
10827;SDS011;5467;59.334;13.512;2023-04-03T13:02:19;0.70;;;0.70;;
10827;SDS011;5467;59.334;13.512;2023-04-03T13:04:49;0.60;;;0.60;;
10827;SDS011;5467;59.334;13.512;2023-04-03T13:07:21;0.60;;;0.60;;
10827;SDS011;5467;59.334;13.512;2023-04-03T13:09:55;0.60;;;0.60;;
10827;SDS011;5467;59.334;13.512;2023-04-03T13:12:24;0.70;;;0.70;;
10827;SDS011;5467;59.334;13.512;2023-04-03T13:14:53;0.60;;;0.60;;
10827;SDS011;5467;59.334;13.512;2023-04-03T13:17:23;0.60;;;0.60;;
10827;SDS011;5467;59.334;13.512;2023-04-03T13:19:52;0.60;;;0.60;;
10827;SDS011;5467;59.334;13.512;2023-04-03T13:22:24;0.60;;;0.60;;
10827;SDS011;5467;59.334;13.512;2023-04-03T13:24:54;0.60;;;0.60;;
10827;SDS011;5467;59.334;13.512;2023-04-03T13:27:24;0.60;;;0.60;;
10827;SDS011;5467;59.334;13.512;2023-04-03T13:29:54;0.60;;;0.60;;
10827;SDS011;5467;59.334;13.512;2023-04-03T13:32:26;0.70;;;0.70;;
10827;SDS011;5467;59.334;13.512;2023-04-03T13:34:54;0.60;;;0.60;;
10827;SDS011;5467;59.334;13.512;2023-04-03T13:37:22;0.50;;;0.50;;
10827;SDS011;5467;59.334;13.512;2023-04-03T13:39:58;0.60;;;0.60;;
10827;SDS011;5467;59.334;13.512;2023-04-03T13:42:29;0.60;;;0.60;;
10827;SDS011;5467;59.334;13.512;2023-04-03T13:45:17;0.60;;;0.60;;
10827;SDS011;5467;59.334;13.512;2023-04-03T13:47:49;0.60;;;0.60;;
10827;SDS011;5467;59.334;13.512;2023-04-03T13:50:18;0.70;;;0.70;;
10827;SDS011;5467;59.334;13.512;2023-04-03T13:52:48;0.70;;;0.70;;
10827;SDS011;5467;59.334;13.512;2023-04-03T13:55:20;0.60;;;0.60;;
10827;SDS011;5467;59.334;13.512;2023-04-03T13:57:50;0.60;;;0.60;;
10827;SDS011;5467;59.334;13.512;2023-04-03T14:00:22;0.60;;;0.60;;
10827;SDS011;5467;59.334;13.512;2023-04-03T14:02:59;0.60;;;0.60;;
10827;SDS011;5467;59.334;13.512;2023-04-03T14:05:27;0.70;;;0.70;;
10827;SDS011;5467;59.334;13.512;2023-04-03T14:07:54;0.60;;;0.60;;
10827;SDS011;5467;59.334;13.512;2023-04-03T14:10:22;0.60;;;0.60;;
10827;SDS011;5467;59.334;13.512;2023-04-03T14:12:49;0.70;;;0.70;;
10827;SDS011;5467;59.334;13.512;2023-04-03T14:15:18;0.60;;;0.60;;
10827;SDS011;5467;59.334;13.512;2023-04-03T14:17:48;0.60;;;0.60;;
10827;SDS011;5467;59.334;13.512;2023-04-03T14:20:16;0.60;;;0.60;;
10827;SDS011;5467;59.334;13.512;2023-04-03T14:22:45;0.60;;;0.60;;
10827;SDS011;5467;59.334;13.512;2023-04-03T14:25:13;0.60;;;0.60;;
10827;SDS011;5467;59.334;13.512;2023-04-03T14:27:42;0.60;;;0.60;;
10827;SDS011;5467;59.334;13.512;2023-04-03T14:30:12;0.60;;;0.60;;
10827;SDS011;5467;59.334;13.512;2023-04-03T14:32:44;0.60;;;0.60;;
10827;SDS011;5467;59.334;13.512;2023-04-03T14:35:13;0.60;;;0.60;;
10827;SDS011;5467;59.334;13.512;2023-04-03T14:37:41;0.70;;;0.70;;
10827;SDS011;5467;59.334;13.512;2023-04-03T14:40:11;0.60;;;0.60;;
10827;SDS011;5467;59.334;13.512;2023-04-03T14:42:40;0.70;;;0.70;;
10827;SDS011;5467;59.334;13.512;2023-04-03T14:45:08;0.60;;;0.60;;
10827;SDS011;5467;59.334;13.512;2023-04-03T14:47:39;0.60;;;0.60;;
10827;SDS011;5467;59.334;13.512;2023-04-03T14:50:13;0.60;;;0.60;;
10827;SDS011;5467;59.334;13.512;2023-04-03T14:52:42;0.60;;;0.60;;
10827;SDS011;5467;59.334;13.512;2023-04-03T14:55:12;0.70;;;0.70;;
10827;SDS011;5467;59.334;13.512;2023-04-03T14:57:40;0.60;;;0.60;;
10827;SDS011;5467;59.334;13.512;2023-04-03T15:00:11;0.70;;;0.70;;
10827;SDS011;5467;59.334;13.512;2023-04-03T15:02:40;0.60;;;0.60;;
10827;SDS011;5467;59.334;13.512;2023-04-03T15:05:08;0.60;;;0.60;;
10827;SDS011;5467;59.334;13.512;2023-04-03T15:07:40;0.70;;;0.70;;
10827;SDS011;5467;59.334;13.512;2023-04-03T15:10:16;0.60;;;0.60;;
10827;SDS011;5467;59.334;13.512;2023-04-03T15:12:45;0.70;;;0.70;;
10827;SDS011;5467;59.334;13.512;2023-04-03T15:15:14;0.60;;;0.60;;
10827;SDS011;5467;59.334;13.512;2023-04-03T15:17:44;0.60;;;0.60;;
10827;SDS011;5467;59.334;13.512;2023-04-03T15:20:14;0.70;;;0.70;;
10827;SDS011;5467;59.334;13.512;2023-04-03T15:22:44;0.70;;;0.70;;
10827;SDS011;5467;59.334;13.512;2023-04-03T15:25:12;0.50;;;0.50;;
10827;SDS011;5467;59.334;13.512;2023-04-03T15:27:39;0.60;;;0.60;;
10827;SDS011;5467;59.334;13.512;2023-04-03T15:30:10;0.60;;;0.60;;
10827;SDS011;5467;59.334;13.512;2023-04-03T15:32:40;0.70;;;0.70;;
10827;SDS011;5467;59.334;13.512;2023-04-03T15:35:07;0.60;;;0.60;;
10827;SDS011;5467;59.334;13.512;2023-04-03T15:37:34;0.60;;;0.60;;
10827;SDS011;5467;59.334;13.512;2023-04-03T15:40:04;0.70;;;0.70;;
10827;SDS011;5467;59.334;13.512;2023-04-03T15:42:32;0.70;;;0.70;;
10827;SDS011;5467;59.334;13.512;2023-04-03T15:45:00;0.70;;;0.70;;
10827;SDS011;5467;59.334;13.512;2023-04-03T15:47:27;0.70;;;0.70;;
10827;SDS011;5467;59.334;13.512;2023-04-03T15:49:55;0.70;;;0.70;;
10827;SDS011;5467;59.334;13.512;2023-04-03T15:52:22;0.60;;;0.60;;